Terminal Aerodrome Forecast
Issued by NWS Albany, NY

Home | Current Version | Previous Version | Text Only | Print | Product List | Glossary On
Versions: 1 2 3 4 5 6 7 8 9 10 11 12 13 14 15 16 17 18 19
000
FTUS41 KALY 231700
TAFALB
TAF
KALB 231723Z 2318/2418 30010KT P6SM SCT040 SCT250
     FM240000 VRB03KT P6SM FEW040
     FM240200 00000KT P6SM SKC
     FM241300 13005KT P6SM SCT030 SCT250=

USA.gov is the U.S. government's official web portal to all federal, state and local government web resources and services.